Time;durP1;ratioP1;P1;durP2;ratioP2;P2;SDS_P1;SDS_P2;PMS_P1;PMS_P2;Temp;Humidity;BMP_temperature;BMP_pressure;BME280_temperature;BME280_humidity;BME280_pressure;Samples;Min_cycle;Max_cycle;Signal;HPM_P1;HPM_P2
2022/04/07 00:00:32;;;;;;;;;;;20.70;42.50;;;;;;5052079;28;20011;-50
2022/04/07 00:02:59;;;;;;;;;;;20.70;42.50;;;;;;5068918;28;20328;-51
2022/04/07 00:05:25;;;;;;;;;;;20.70;42.50;;;;;;5054655;28;19974;-48
2022/04/07 00:07:52;;;;;;;;;;;20.70;42.50;;;;;;5051774;28;20015;-46
2022/04/07 00:10:20;;;;;;;;;;;20.70;42.50;;;;;;5068875;28;19984;-46
2022/04/07 00:12:47;;;;;;;;;;;20.70;42.50;;;;;;5067240;28;19928;-45
2022/04/07 00:15:14;;;;;;;;;;;20.70;42.50;;;;;;5049904;28;19938;-47
2022/04/07 00:17:42;;;;;;;;;;;20.70;42.50;;;;;;5067782;28;19932;-46
2022/04/07 00:20:09;;;;;;;;;;;20.70;42.50;;;;;;5068537;28;19939;-48
2022/04/07 00:22:36;;;;;;;;;;;20.70;42.50;;;;;;5054552;28;19982;-48
2022/04/07 00:25:03;;;;;;;;;;;20.70;42.50;;;;;;5053256;28;19960;-44
2022/04/07 00:27:31;;;;;;;;;;;20.70;42.50;;;;;;5050497;28;20576;-46
2022/04/07 00:29:57;;;;;;;;;;;20.70;42.50;;;;;;5051647;28;19928;-49
2022/04/07 00:32:24;;;;;;;;;;;20.70;42.50;;;;;;5053974;28;19928;-49
2022/04/07 00:34:54;;;;;;;;;;;20.70;42.50;;;;;;5047408;28;19928;-46
2022/04/07 00:37:23;;;;;;;;;;;20.70;42.50;;;;;;5054658;28;19960;-47
2022/04/07 00:39:50;;;;;;;;;;;20.70;42.50;;;;;;5045604;28;19967;-50
2022/04/07 00:42:16;;;;;;;;;;;20.70;42.50;;;;;;5068667;28;20019;-50
2022/04/07 00:44:44;;;;;;;;;;;20.70;42.50;;;;;;5066890;28;19932;-46
2022/04/07 00:47:11;;;;;;;;;;;20.70;42.50;;;;;;5054708;28;20051;-48
2022/04/07 00:49:38;;;;;;;;;;;20.60;42.50;;;;;;5067636;28;19931;-47
2022/04/07 00:52:06;;;;;;;;;;;20.70;42.50;;;;;;5069353;28;20022;-46
2022/04/07 00:54:33;;;;;;;;;;;20.70;42.50;;;;;;5050536;28;19925;-49
2022/04/07 00:57:00;;;;;;;;;;;20.70;42.50;;;;;;5068437;28;19924;-47
2022/04/07 00:59:27;;;;;;;;;;;20.70;42.50;;;;;;5065961;28;19969;-45
2022/04/07 01:01:54;;;;;;;;;;;20.70;42.50;;;;;;5046662;28;20309;-47
2022/04/07 01:04:21;;;;;;;;;;;20.70;42.50;;;;;;5070257;28;19981;-45
2022/04/07 01:06:48;;;;;;;;;;;20.70;42.50;;;;;;5067373;28;20020;-44
2022/04/07 01:09:16;;;;;;;;;;;20.60;42.50;;;;;;5071240;28;20118;-45
2022/04/07 01:11:43;;;;;;;;;;;20.70;42.50;;;;;;5054320;28;20345;-47
2022/04/07 01:14:10;;;;;;;;;;;20.70;42.50;;;;;;5055443;28;19937;-45
2022/04/07 01:16:37;;;;;;;;;;;20.60;42.50;;;;;;5072069;28;19970;-50
2022/04/07 01:19:04;;;;;;;;;;;20.70;42.60;;;;;;5073112;28;20403;-48
2022/04/07 01:21:31;;;;;;;;;;;20.70;42.50;;;;;;5069428;28;19924;-48
2022/04/07 01:24:02;;;;;;;;;;;20.70;42.50;;;;;;5069248;28;19932;-47
2022/04/07 01:26:31;;;;;;;;;;;20.70;42.60;;;;;;5048957;28;20376;-44
2022/04/07 01:28:59;;;;;;;;;;;20.70;42.50;;;;;;5045899;28;19925;-48
2022/04/07 01:31:25;;;;;;;;;;;20.70;42.50;;;;;;5046354;28;19928;-46
2022/04/07 01:33:52;;;;;;;;;;;20.70;42.50;;;;;;5032053;28;19931;-49
2022/04/07 01:36:19;;;;;;;;;;;20.70;42.50;;;;;;5049997;28;19939;-49
2022/04/07 01:38:46;;;;;;;;;;;20.70;42.50;;;;;;5052061;28;19924;-46
2022/04/07 01:41:15;;;;;;;;;;;20.70;42.50;;;;;;5049874;28;19947;-48
2022/04/07 01:43:44;;;;;;;;;;;20.70;42.50;;;;;;5056341;28;20368;-46
2022/04/07 01:46:12;;;;;;;;;;;20.70;42.50;;;;;;5064003;28;19993;-48
2022/04/07 01:48:39;;;;;;;;;;;20.70;42.50;;;;;;5060579;28;20426;-46
2022/04/07 01:51:05;;;;;;;;;;;20.70;42.50;;;;;;5062741;28;19936;-48
2022/04/07 01:53:32;;;;;;;;;;;20.70;42.50;;;;;;5068511;28;20051;-45
2022/04/07 01:55:59;;;;;;;;;;;20.70;42.50;;;;;;5050829;28;19963;-48
2022/04/07 01:58:26;;;;;;;;;;;20.60;42.50;;;;;;5065245;28;20476;-44
2022/04/07 02:00:55;;;;;;;;;;;20.60;42.50;;;;;;5045211;28;19924;-48
2022/04/07 02:03:22;;;;;;;;;;;20.70;42.50;;;;;;5051383;28;20329;-47
2022/04/07 02:05:48;;;;;;;;;;;20.70;42.50;;;;;;5066264;28;19924;-47
2022/04/07 02:08:15;;;;;;;;;;;20.70;42.50;;;;;;5046479;28;19924;-54
2022/04/07 02:10:42;;;;;;;;;;;20.60;42.50;;;;;;5046091;28;19959;-49
2022/04/07 02:13:09;;;;;;;;;;;20.60;42.50;;;;;;5070701;28;20011;-49
2022/04/07 02:15:36;;;;;;;;;;;20.70;42.50;;;;;;5052642;28;20006;-47
2022/04/07 02:18:04;;;;;;;;;;;20.60;42.50;;;;;;5047211;28;19925;-44
2022/04/07 02:20:31;;;;;;;;;;;20.60;42.50;;;;;;5066600;28;19939;-48
2022/04/07 02:22:59;;;;;;;;;;;20.60;42.50;;;;;;5041278;28;19994;-48
2022/04/07 02:25:28;;;;;;;;;;;20.60;42.50;;;;;;5048935;28;20278;-47
2022/04/07 02:27:55;;;;;;;;;;;20.70;42.50;;;;;;5051002;28;20266;-46
2022/04/07 02:30:23;;;;;;;;;;;20.70;42.50;;;;;;5053779;28;19974;-50
2022/04/07 02:32:52;;;;;;;;;;;20.70;42.50;;;;;;5053921;28;19976;-47
2022/04/07 02:35:20;;;;;;;;;;;20.60;42.50;;;;;;5066424;28;20001;-46
2022/04/07 02:37:47;;;;;;;;;;;20.70;42.50;;;;;;5045324;28;19929;-48
2022/04/07 02:40:14;;;;;;;;;;;20.60;42.50;;;;;;5064447;28;19924;-47
2022/04/07 02:42:41;;;;;;;;;;;20.60;42.50;;;;;;5041061;28;19960;-44
2022/04/07 02:45:08;;;;;;;;;;;20.60;42.50;;;;;;5046404;28;19924;-49
2022/04/07 02:47:38;;;;;;;;;;;20.60;42.50;;;;;;5061246;28;19982;-44
2022/04/07 02:50:05;;;;;;;;;;;20.60;42.50;;;;;;5052475;28;19924;-49
2022/04/07 02:52:34;;;;;;;;;;;20.60;42.50;;;;;;5043145;28;19935;-47
2022/04/07 02:55:00;;;;;;;;;;;20.70;42.50;;;;;;5063157;28;19931;-48
2022/04/07 02:57:30;;;;;;;;;;;20.60;42.50;;;;;;5052839;28;19924;-50
2022/04/07 02:59:57;;;;;;;;;;;20.70;42.60;;;;;;5060286;28;20016;-46
2022/04/07 03:02:24;;;;;;;;;;;20.60;42.50;;;;;;5034697;28;19929;-47
2022/04/07 03:04:51;;;;;;;;;;;20.60;42.50;;;;;;5068045;28;20345;-48
2022/04/07 03:07:18;;;;;;;;;;;20.60;42.50;;;;;;5069699;28;19924;-44
2022/04/07 03:09:46;;;;;;;;;;;20.60;42.50;;;;;;5051450;28;19931;-47
2022/04/07 03:12:13;;;;;;;;;;;20.60;42.50;;;;;;5068532;28;19960;-45
2022/04/07 03:14:40;;;;;;;;;;;20.60;42.50;;;;;;5047400;28;20370;-47
2022/04/07 03:17:06;;;;;;;;;;;20.60;42.40;;;;;;5060048;28;19933;-48
2022/04/07 03:19:34;;;;;;;;;;;20.60;42.50;;;;;;5043957;28;20508;-44
2022/04/07 03:22:01;;;;;;;;;;;20.60;42.50;;;;;;5046424;28;20417;-43
2022/04/07 03:24:28;;;;;;;;;;;20.60;42.40;;;;;;5052121;28;19955;-46
2022/04/07 03:26:56;;;;;;;;;;;20.60;42.40;;;;;;5055666;28;19929;-44
2022/04/07 03:29:26;;;;;;;;;;;20.60;42.40;;;;;;5050847;28;20015;-50
2022/04/07 03:31:53;;;;;;;;;;;20.60;42.40;;;;;;5066635;28;19978;-45
2022/04/07 03:34:20;;;;;;;;;;;20.60;42.40;;;;;;5068442;28;19935;-49
2022/04/07 03:36:47;;;;;;;;;;;20.60;42.40;;;;;;5049385;28;20007;-46
2022/04/07 03:39:13;;;;;;;;;;;20.60;42.40;;;;;;5051121;28;19928;-46
2022/04/07 03:41:40;;;;;;;;;;;20.60;42.40;;;;;;5053475;28;19966;-49
2022/04/07 03:44:09;;;;;;;;;;;20.60;42.40;;;;;;5060729;28;19928;-49
2022/04/07 03:46:36;;;;;;;;;;;20.60;42.50;;;;;;5065852;28;19924;-48
2022/04/07 03:49:03;;;;;;;;;;;20.60;42.40;;;;;;5065472;28;19924;-47
2022/04/07 03:51:30;;;;;;;;;;;20.60;42.40;;;;;;5048994;28;19924;-46
2022/04/07 03:53:56;;;;;;;;;;;20.60;42.40;;;;;;5056962;28;19924;-45
2022/04/07 03:56:23;;;;;;;;;;;20.60;42.40;;;;;;5066012;28;20011;-44
2022/04/07 03:58:50;;;;;;;;;;;20.60;42.40;;;;;;5051246;28;19932;-53
2022/04/07 04:01:18;;;;;;;;;;;20.60;42.50;;;;;;5066160;28;20413;-48
2022/04/07 04:03:45;;;;;;;;;;;20.60;42.40;;;;;;5062651;28;19925;-49
2022/04/07 04:06:12;;;;;;;;;;;20.60;42.40;;;;;;5045043;28;19928;-47
2022/04/07 04:08:38;;;;;;;;;;;20.60;42.40;;;;;;5044947;28;19952;-49
2022/04/07 04:11:05;;;;;;;;;;;20.60;42.40;;;;;;5046139;28;20019;-45
2022/04/07 04:13:33;;;;;;;;;;;20.60;42.40;;;;;;5044369;28;20031;-45
2022/04/07 04:16:01;;;;;;;;;;;20.60;42.40;;;;;;5045651;28;19960;-44
2022/04/07 04:18:29;;;;;;;;;;;20.60;42.40;;;;;;5057135;28;19925;-45
2022/04/07 04:20:56;;;;;;;;;;;20.60;42.40;;;;;;5062274;28;20013;-49
2022/04/07 04:23:23;;;;;;;;;;;20.60;43.00;;;;;;5062165;28;19925;-47
2022/04/07 04:25:50;;;;;;;;;;;20.60;42.40;;;;;;5041956;28;19978;-44
2022/04/07 04:28:17;;;;;;;;;;;20.60;42.40;;;;;;5050762;28;19931;-48
2022/04/07 04:30:43;;;;;;;;;;;20.60;42.40;;;;;;5045091;28;20002;-47
2022/04/07 04:33:10;;;;;;;;;;;20.60;42.50;;;;;;5039294;28;20004;-44
2022/04/07 04:35:39;;;;;;;;;;;20.60;42.40;;;;;;5066006;28;20388;-48
2022/04/07 04:38:06;;;;;;;;;;;20.60;42.40;;;;;;5058550;28;19935;-45
2022/04/07 04:40:32;;;;;;;;;;;20.60;42.40;;;;;;5053654;28;19971;-48
2022/04/07 04:43:00;;;;;;;;;;;20.60;42.40;;;;;;5038160;28;19931;-48
2022/04/07 04:45:26;;;;;;;;;;;20.60;42.40;;;;;;5048205;28;19960;-47
2022/04/07 04:47:53;;;;;;;;;;;20.60;42.40;;;;;;5068002;28;20419;-47
2022/04/07 04:50:20;;;;;;;;;;;20.60;42.40;;;;;;5052216;28;19964;-47
2022/04/07 04:52:48;;;;;;;;;;;20.60;42.40;;;;;;5052772;28;19928;-44
2022/04/07 04:55:15;;;;;;;;;;;20.70;42.50;;;;;;5066850;28;19925;-45
2022/04/07 04:57:42;;;;;;;;;;;20.70;42.50;;;;;;5046234;28;20332;-46
2022/04/07 05:00:09;;;;;;;;;;;20.60;42.40;;;;;;5053409;28;21848;-43
2022/04/07 05:02:37;;;;;;;;;;;20.60;42.40;;;;;;5043098;28;19931;-50
2022/04/07 05:05:06;;;;;;;;;;;20.60;42.40;;;;;;5063517;28;19925;-52
2022/04/07 05:07:33;;;;;;;;;;;20.60;42.40;;;;;;5063007;28;20031;-44
2022/04/07 05:10:14;;;;;;;;;;;20.60;42.40;;;;;;5043444;28;19929;-46
2022/04/07 05:12:40;;;;;;;;;;;20.60;42.40;;;;;;5064162;28;19987;-47
2022/04/07 05:15:07;;;;;;;;;;;20.60;42.40;;;;;;5055684;28;19947;-46
2022/04/07 05:17:34;;;;;;;;;;;20.60;42.40;;;;;;5070656;28;19928;-49
2022/04/07 05:20:01;;;;;;;;;;;20.60;42.40;;;;;;5049592;28;20282;-50
2022/04/07 05:22:28;;;;;;;;;;;20.60;42.40;;;;;;5052508;28;20281;-46
2022/04/07 05:24:55;;;;;;;;;;;20.60;42.40;;;;;;5042787;28;20054;-45
2022/04/07 05:27:23;;;;;;;;;;;20.60;42.40;;;;;;5065383;28;20411;-47
2022/04/07 05:29:50;;;;;;;;;;;20.60;42.40;;;;;;5067242;28;20015;-46
2022/04/07 05:32:16;;;;;;;;;;;20.60;42.40;;;;;;5050836;28;19970;-49
2022/04/07 05:34:43;;;;;;;;;;;20.60;42.40;;;;;;5053739;28;20630;-46
2022/04/07 05:37:10;;;;;;;;;;;20.60;42.40;;;;;;5039288;28;20599;-48
2022/04/07 05:39:37;;;;;;;;;;;20.60;42.40;;;;;;5051387;28;19924;-45
2022/04/07 05:42:04;;;;;;;;;;;20.60;42.40;;;;;;5052248;28;19924;-50
2022/04/07 05:44:32;;;;;;;;;;;20.60;42.40;;;;;;5065804;28;19931;-49
2022/04/07 05:46:59;;;;;;;;;;;20.60;42.40;;;;;;5080302;28;19925;-52
2022/04/07 05:49:26;;;;;;;;;;;20.60;42.30;;;;;;5067299;28;19959;-47
2022/04/07 05:51:54;;;;;;;;;;;20.60;42.30;;;;;;5065507;28;19931;-48
2022/04/07 05:54:21;;;;;;;;;;;20.60;42.30;;;;;;5061296;28;19932;-49
2022/04/07 05:56:48;;;;;;;;;;;20.60;42.30;;;;;;5070864;28;19925;-46
2022/04/07 05:59:15;;;;;;;;;;;20.60;42.20;;;;;;5053482;28;19932;-45
2022/04/07 06:01:43;;;;;;;;;;;20.60;42.20;;;;;;5062165;28;19942;-46
2022/04/07 06:04:09;;;;;;;;;;;20.60;42.20;;;;;;5069826;28;20015;-51
2022/04/07 06:06:36;;;;;;;;;;;20.60;42.20;;;;;;5051048;28;19931;-46
2022/04/07 06:09:03;;;;;;;;;;;20.70;42.20;;;;;;5050822;28;19951;-48
2022/04/07 06:11:30;;;;;;;;;;;20.70;42.30;;;;;;5050349;28;19925;-49
2022/04/07 06:13:57;;;;;;;;;;;20.70;42.30;;;;;;5052016;28;20064;-45
2022/04/07 06:16:24;;;;;;;;;;;20.70;42.30;;;;;;5071605;28;19924;-48
2022/04/07 06:18:52;;;;;;;;;;;20.70;42.30;;;;;;5072405;28;20334;-46
2022/04/07 06:21:19;;;;;;;;;;;20.70;42.30;;;;;;5049898;28;19987;-47
2022/04/07 06:23:46;;;;;;;;;;;20.70;42.30;;;;;;5067046;28;19924;-49
2022/04/07 06:26:12;;;;;;;;;;;20.70;42.40;;;;;;5043464;28;20313;-45
2022/04/07 06:28:42;;;;;;;;;;;20.70;42.40;;;;;;5078589;28;19929;-44
2022/04/07 06:31:09;;;;;;;;;;;20.70;42.40;;;;;;5058669;28;19947;-48
2022/04/07 06:33:36;;;;;;;;;;;20.70;42.40;;;;;;5055275;28;19967;-46
2022/04/07 06:36:04;;;;;;;;;;;20.70;42.40;;;;;;5058624;28;19928;-51
2022/04/07 06:38:33;;;;;;;;;;;20.70;42.40;;;;;;5072909;28;20011;-45
2022/04/07 06:40:59;;;;;;;;;;;20.70;42.50;;;;;;5056878;28;19924;-47
2022/04/07 06:43:26;;;;;;;;;;;20.70;42.50;;;;;;5053315;28;20334;-48
2022/04/07 06:45:53;;;;;;;;;;;20.70;42.50;;;;;;5067621;28;19982;-47
2022/04/07 06:48:20;;;;;;;;;;;20.70;42.50;;;;;;5048474;28;19924;-48
2022/04/07 06:50:47;;;;;;;;;;;20.70;42.50;;;;;;5059904;28;19924;-47
2022/04/07 06:53:15;;;;;;;;;;;20.70;42.50;;;;;;5056238;28;20757;-50
2022/04/07 06:55:43;;;;;;;;;;;20.70;42.50;;;;;;5071702;28;19931;-46
2022/04/07 06:58:10;;;;;;;;;;;20.70;42.50;;;;;;5053679;28;19935;-45
2022/04/07 07:00:41;;;;;;;;;;;20.70;42.50;;;;;;5069683;28;19935;-53
2022/04/07 07:03:10;;;;;;;;;;;20.70;42.50;;;;;;5044565;28;19960;-48
2022/04/07 07:05:36;;;;;;;;;;;20.70;42.50;;;;;;5070112;28;19924;-49
2022/04/07 07:08:15;;;;;;;;;;;20.70;42.40;;;;;;5048929;28;19925;-48
2022/04/07 07:10:41;;;;;;;;;;;20.70;42.50;;;;;;5067464;28;20280;-46
2022/04/07 07:13:08;;;;;;;;;;;20.70;42.40;;;;;;5046266;28;20446;-52
2022/04/07 07:15:35;;;;;;;;;;;20.70;42.40;;;;;;5066307;28;19975;-51
2022/04/07 07:18:02;;;;;;;;;;;20.70;42.40;;;;;;5043269;28;19932;-51
2022/04/07 07:20:29;;;;;;;;;;;20.70;42.40;;;;;;5048464;28;19928;-49
2022/04/07 07:22:56;;;;;;;;;;;20.70;42.40;;;;;;5064170;28;20014;-49
2022/04/07 07:25:24;;;;;;;;;;;20.70;42.40;;;;;;5045113;28;20313;-54
2022/04/07 07:27:51;;;;;;;;;;;20.70;42.40;;;;;;5056743;28;19925;-49
2022/04/07 07:30:18;;;;;;;;;;;20.70;42.40;;;;;;5052708;28;19924;-51
2022/04/07 07:32:45;;;;;;;;;;;20.70;42.40;;;;;;5052584;28;19928;-52
2022/04/07 07:35:12;;;;;;;;;;;20.70;42.40;;;;;;5050004;28;19924;-55
2022/04/07 07:37:48;;;;;;;;;;;20.70;42.40;;;;;;5046726;28;19968;-52
2022/04/07 07:40:15;;;;;;;;;;;20.70;42.40;;;;;;5052919;28;19924;-51
2022/04/07 07:42:43;;;;;;;;;;;20.70;42.40;;;;;;5045429;28;20407;-51
2022/04/07 07:45:10;;;;;;;;;;;20.70;42.40;;;;;;5067502;28;20435;-50
2022/04/07 07:47:37;;;;;;;;;;;20.70;42.40;;;;;;5039306;28;19932;-52
2022/04/07 07:50:04;;;;;;;;;;;20.70;42.40;;;;;;5046141;28;20325;-50
2022/04/07 07:52:31;;;;;;;;;;;20.70;42.40;;;;;;5051123;28;20312;-55
2022/04/07 07:54:57;;;;;;;;;;;20.70;42.40;;;;;;5054197;28;19929;-53
2022/04/07 07:57:24;;;;;;;;;;;20.70;42.40;;;;;;5052456;28;20055;-48
2022/04/07 07:59:53;;;;;;;;;;;20.70;42.40;;;;;;5050319;28;19924;-49
2022/04/07 08:02:19;;;;;;;;;;;20.70;42.40;;;;;;5053329;28;19924;-53
2022/04/07 08:04:46;;;;;;;;;;;20.70;42.40;;;;;;5048326;28;19925;-47
2022/04/07 08:07:13;;;;;;;;;;;20.70;42.40;;;;;;5061673;28;20031;-52
2022/04/07 08:09:40;;;;;;;;;;;20.70;42.30;;;;;;5049294;28;19932;-49
2022/04/07 08:12:07;;;;;;;;;;;20.70;42.40;;;;;;5067555;28;19925;-54
2022/04/07 08:14:34;;;;;;;;;;;20.70;42.40;;;;;;5064006;28;20018;-52
2022/04/07 08:17:02;;;;;;;;;;;20.70;42.40;;;;;;5051783;28;19992;-53
2022/04/07 08:19:29;;;;;;;;;;;20.70;42.40;;;;;;5050350;28;19999;-50
2022/04/07 08:21:56;;;;;;;;;;;20.70;42.30;;;;;;5048178;28;20374;-45
2022/04/07 08:24:23;;;;;;;;;;;20.70;42.30;;;;;;5047756;28;20037;-46
2022/04/07 08:26:50;;;;;;;;;;;20.70;42.30;;;;;;5054788;28;19943;-46
2022/04/07 08:29:17;;;;;;;;;;;20.70;42.30;;;;;;5051422;28;19994;-46
2022/04/07 08:31:44;;;;;;;;;;;20.70;42.30;;;;;;5065875;28;20269;-55
2022/04/07 08:34:12;;;;;;;;;;;20.70;42.30;;;;;;5044477;28;20023;-49
2022/04/07 08:36:40;;;;;;;;;;;20.70;42.30;;;;;;5068904;28;20417;-47
2022/04/07 08:39:07;;;;;;;;;;;20.70;42.30;;;;;;5075711;28;19934;-48
2022/04/07 08:41:34;;;;;;;;;;;20.70;42.30;;;;;;5059510;28;19943;-50
2022/04/07 08:44:01;;;;;;;;;;;20.70;42.30;;;;;;5067835;28;19925;-53
2022/04/07 08:46:28;;;;;;;;;;;20.70;42.30;;;;;;5059997;28;19990;-52
2022/04/07 08:48:55;;;;;;;;;;;20.70;42.30;;;;;;5050769;28;19954;-48
2022/04/07 08:51:23;;;;;;;;;;;20.70;42.30;;;;;;5071766;28;19929;-51
2022/04/07 08:53:50;;;;;;;;;;;20.70;42.30;;;;;;5072314;28;19932;-48
2022/04/07 08:56:17;;;;;;;;;;;20.70;42.30;;;;;;5056190;28;19978;-46
2022/04/07 08:58:44;;;;;;;;;;;20.70;42.30;;;;;;5064559;28;19932;-50
2022/04/07 09:01:11;;;;;;;;;;;20.70;42.30;;;;;;5054426;28;20296;-48
2022/04/07 09:03:39;;;;;;;;;;;20.70;42.40;;;;;;5057281;28;20419;-51
2022/04/07 09:06:05;;;;;;;;;;;20.70;42.30;;;;;;5073910;28;20713;-49
2022/04/07 09:08:34;;;;;;;;;;;20.70;42.30;;;;;;5055796;28;19924;-50
2022/04/07 09:11:00;;;;;;;;;;;20.70;42.30;;;;;;5070470;28;20019;-52
2022/04/07 09:13:31;;;;;;;;;;;20.70;42.30;;;;;;5063213;28;19928;-51
2022/04/07 09:15:58;;;;;;;;;;;20.70;42.30;;;;;;5056156;28;19939;-50
2022/04/07 09:18:25;;;;;;;;;;;20.70;42.30;;;;;;5067372;28;19929;-51
2022/04/07 09:20:52;;;;;;;;;;;20.70;42.30;;;;;;5071664;28;19924;-47
2022/04/07 09:23:18;;;;;;;;;;;20.70;42.30;;;;;;5068759;28;20355;-49
2022/04/07 09:25:49;;;;;;;;;;;20.70;42.30;;;;;;5050847;28;19940;-52
2022/04/07 09:28:28;;;;;;;;;;;20.70;42.30;;;;;;5062457;28;20027;-46
2022/04/07 09:30:56;;;;;;;;;;;20.70;42.30;;;;;;5043458;28;20001;-51
2022/04/07 09:33:23;;;;;;;;;;;20.70;42.20;;;;;;5043411;28;20021;-50
2022/04/07 09:36:00;;;;;;;;;;;20.70;42.30;;;;;;5062357;28;19925;-46
2022/04/07 09:38:27;;;;;;;;;;;20.70;42.20;;;;;;5046132;28;20015;-48
2022/04/07 09:40:55;;;;;;;;;;;20.70;42.30;;;;;;5054167;28;19928;-49
2022/04/07 09:43:22;;;;;;;;;;;20.70;42.20;;;;;;5066882;28;20332;-47
2022/04/07 09:45:49;;;;;;;;;;;20.70;42.20;;;;;;5045024;28;19935;-50
2022/04/07 09:48:19;;;;;;;;;;;20.70;42.20;;;;;;5049126;28;19960;-48
2022/04/07 09:51:01;;;;;;;;;;;20.70;42.20;;;;;;5071703;28;19991;-48
2022/04/07 09:53:27;;;;;;;;;;;20.70;42.20;;;;;;5058915;28;19925;-48
2022/04/07 09:55:56;;;;;;;;;;;20.70;42.20;;;;;;5057304;28;19972;-51
2022/04/07 09:58:22;;;;;;;;;;;20.70;42.20;;;;;;5074617;28;19924;-48
2022/04/07 10:00:49;;;;;;;;;;;20.70;42.10;;;;;;5023893;28;20558;-51
2022/04/07 10:03:16;;;;;;;;;;;20.70;42.10;;;;;;5056176;28;20483;-51
2022/04/07 10:05:44;;;;;;;;;;;20.70;42.10;;;;;;5056615;28;20030;-50
2022/04/07 10:08:10;;;;;;;;;;;20.70;42.10;;;;;;5050428;28;20448;-51
2022/04/07 10:10:37;;;;;;;;;;;20.70;42.10;;;;;;5049083;28;20295;-49
2022/04/07 10:13:06;;;;;;;;;;;20.70;42.10;;;;;;5054713;28;19925;-51
2022/04/07 10:15:32;;;;;;;;;;;20.70;42.10;;;;;;5042864;28;19924;-50
2022/04/07 10:18:00;;;;;;;;;;;20.70;42.10;;;;;;5069128;28;20284;-47
2022/04/07 10:20:28;;;;;;;;;;;20.70;42.10;;;;;;5053615;28;21459;-47
2022/04/07 10:22:59;;;;;;;;;;;20.70;42.10;;;;;;5071587;28;20312;-49
2022/04/07 10:25:26;;;;;;;;;;;20.70;42.10;;;;;;5047340;28;20013;-48
2022/04/07 10:27:53;;;;;;;;;;;20.70;42.00;;;;;;5066625;28;19924;-46
2022/04/07 10:30:21;;;;;;;;;;;20.70;42.00;;;;;;5053109;28;20086;-49
2022/04/07 10:32:49;;;;;;;;;;;20.70;42.00;;;;;;5071486;28;19935;-48
2022/04/07 10:35:29;;;;;;;;;;;20.70;42.00;;;;;;5055387;28;19928;-45
2022/04/07 10:37:55;;;;;;;;;;;20.70;42.00;;;;;;5054247;28;19932;-49
2022/04/07 10:40:39;;;;;;;;;;;20.60;41.90;;;;;;5073091;28;19928;-53
2022/04/07 10:43:10;;;;;;;;;;;20.70;42.00;;;;;;5059100;28;19924;-54
2022/04/07 10:45:38;;;;;;;;;;;20.60;41.90;;;;;;5055567;28;19928;-48
2022/04/07 10:48:21;;;;;;;;;;;20.70;41.90;;;;;;5072729;28;20019;-52
2022/04/07 10:50:49;;;;;;;;;;;20.70;41.90;;;;;;5055088;28;20296;-48
2022/04/07 10:53:20;;;;;;;;;;;20.70;41.90;;;;;;5073131;28;19963;-46
2022/04/07 10:55:53;;;;;;;;;;;20.70;41.90;;;;;;5073251;28;19932;-50
2022/04/07 10:58:21;;;;;;;;;;;20.70;41.90;;;;;;5054349;28;19931;-50
2022/04/07 11:00:49;;;;;;;;;;;20.70;41.90;;;;;;5070259;28;19979;-51
2022/04/07 11:03:17;;;;;;;;;;;20.60;41.80;;;;;;5054163;28;19928;-46
2022/04/07 11:05:54;;;;;;;;;;;20.70;41.90;;;;;;5064868;28;19932;-46
2022/04/07 11:08:23;;;;;;;;;;;20.70;41.90;;;;;;5049722;28;19952;-51
2022/04/07 11:10:52;;;;;;;;;;;20.70;41.90;;;;;;5068230;28;19956;-48
2022/04/07 11:13:20;;;;;;;;;;;20.70;41.90;;;;;;5048005;28;19924;-49
2022/04/07 11:15:52;;;;;;;;;;;20.70;41.90;;;;;;5051533;28;19935;-50
2022/04/07 11:18:20;;;;;;;;;;;20.70;41.80;;;;;;5058942;28;19930;-50
2022/04/07 11:21:09;;;;;;;;;;;20.70;41.80;;;;;;5065074;28;19954;-49
2022/04/07 11:23:40;;;;;;;;;;;20.70;41.80;;;;;;5050967;28;20361;-49
2022/04/07 11:26:10;;;;;;;;;;;20.70;41.80;;;;;;5050838;28;19937;-48
2022/04/07 11:28:38;;;;;;;;;;;20.70;41.80;;;;;;5050190;28;20394;-51
2022/04/07 11:31:07;;;;;;;;;;;20.70;41.80;;;;;;5046910;28;19925;-48
2022/04/07 11:33:38;;;;;;;;;;;20.70;41.80;;;;;;5048647;28;20026;-49
2022/04/07 11:36:11;;;;;;;;;;;20.70;41.70;;;;;;5065989;28;19978;-48
2022/04/07 11:38:39;;;;;;;;;;;20.70;41.70;;;;;;5066696;28;20377;-48
2022/04/07 11:41:05;;;;;;;;;;;20.70;41.70;;;;;;5067350;28;20583;-50
2022/04/07 11:43:33;;;;;;;;;;;20.70;41.70;;;;;;5040835;28;20302;-53
2022/04/07 11:46:02;;;;;;;;;;;20.70;41.70;;;;;;5038723;28;19928;-49
2022/04/07 11:48:44;;;;;;;;;;;20.70;41.70;;;;;;5053321;28;20370;-50
2022/04/07 11:51:11;;;;;;;;;;;20.70;41.70;;;;;;5066813;28;19983;-48
2022/04/07 11:53:39;;;;;;;;;;;20.70;41.70;;;;;;5054190;28;19924;-53
2022/04/07 11:56:12;;;;;;;;;;;20.70;41.70;;;;;;5055630;28;20342;-49
2022/04/07 11:58:38;;;;;;;;;;;20.70;41.70;;;;;;5053295;28;19933;-50
2022/04/07 12:01:07;;;;;;;;;;;20.70;41.70;;;;;;5073967;28;19925;-50
2022/04/07 12:03:36;;;;;;;;;;;20.70;41.60;;;;;;5070126;28;19932;-50
2022/04/07 12:06:03;;;;;;;;;;;20.70;41.70;;;;;;5050168;28;20020;-52
2022/04/07 12:08:30;;;;;;;;;;;20.70;41.60;;;;;;5068025;28;19955;-46
2022/04/07 12:10:56;;;;;;;;;;;20.70;41.70;;;;;;5072378;28;19947;-52
2022/04/07 12:13:23;;;;;;;;;;;20.70;41.70;;;;;;5071333;28;20671;-56
2022/04/07 12:15:50;;;;;;;;;;;20.70;41.60;;;;;;5066538;28;19931;-50
2022/04/07 12:18:24;;;;;;;;;;;20.70;41.60;;;;;;5054703;28;20353;-50
2022/04/07 12:20:59;;;;;;;;;;;20.70;41.70;;;;;;5054213;28;19925;-55
2022/04/07 12:23:26;;;;;;;;;;;20.70;41.70;;;;;;5039394;28;20007;-50
2022/04/07 12:25:57;;;;;;;;;;;20.70;41.60;;;;;;5047004;28;19959;-50
2022/04/07 12:28:24;;;;;;;;;;;20.70;41.60;;;;;;5067285;28;19991;-55
2022/04/07 12:30:51;;;;;;;;;;;20.70;41.60;;;;;;5067490;28;19928;-47
2022/04/07 12:33:37;;;;;;;;;;;20.70;41.60;;;;;;5071782;28;19924;-48
2022/04/07 12:36:05;;;;;;;;;;;20.70;41.60;;;;;;5070447;28;19984;-51
2022/04/07 12:38:32;;;;;;;;;;;20.70;41.60;;;;;;5046107;28;19925;-55
2022/04/07 12:41:08;;;;;;;;;;;20.70;41.60;;;;;;5044400;28;19971;-51
2022/04/07 12:43:45;;;;;;;;;;;20.70;41.60;;;;;;5040735;28;19971;-46
2022/04/07 12:46:12;;;;;;;;;;;20.70;41.60;;;;;;5049413;28;20014;-49
2022/04/07 12:48:54;;;;;;;;;;;20.70;42.20;;;;;;5064670;28;19947;-46
2022/04/07 12:51:26;;;;;;;;;;;20.70;41.70;;;;;;5061901;28;19929;-45
2022/04/07 12:54:04;;;;;;;;;;;20.70;41.60;;;;;;5052649;28;19925;-49
2022/04/07 12:56:31;;;;;;;;;;;20.70;41.60;;;;;;5065224;28;20354;-47
2022/04/07 12:58:59;;;;;;;;;;;20.70;41.60;;;;;;5069744;28;20481;-46
2022/04/07 13:01:26;;;;;;;;;;;20.70;41.60;;;;;;5050260;28;19929;-52
2022/04/07 13:03:54;;;;;;;;;;;20.70;41.60;;;;;;5062521;28;19928;-50
2022/04/07 13:06:21;;;;;;;;;;;20.70;41.60;;;;;;5050142;28;19951;-51
2022/04/07 13:08:49;;;;;;;;;;;20.70;41.60;;;;;;5066242;28;19990;-49
2022/04/07 13:11:30;;;;;;;;;;;20.70;41.60;;;;;;5063787;28;19925;-46
2022/04/07 13:17:19;;;;;;;;;;;20.70;41.60;;;;;;5064440;28;20030;-48
2022/04/07 13:19:46;;;;;;;;;;;20.70;41.60;;;;;;5072239;28;19925;-49
2022/04/07 13:22:12;;;;;;;;;;;20.70;41.60;;;;;;5074153;28;20378;-49
2022/04/07 13:24:41;;;;;;;;;;;20.80;41.70;;;;;;5040583;28;19933;-49
2022/04/07 13:27:08;;;;;;;;;;;20.70;41.60;;;;;;5053969;28;19991;-47
2022/04/07 13:29:36;;;;;;;;;;;20.70;41.60;;;;;;5058322;28;19935;-49
2022/04/07 13:32:04;;;;;;;;;;;20.70;42.20;;;;;;5054552;28;19935;-50
2022/04/07 13:34:33;;;;;;;;;;;20.70;41.60;;;;;;5058132;28;19928;-50
2022/04/07 13:37:00;;;;;;;;;;;20.70;41.60;;;;;;5054396;28;20270;-47
2022/04/07 13:39:27;;;;;;;;;;;20.70;41.60;;;;;;5060680;28;19968;-46
2022/04/07 13:41:55;;;;;;;;;;;20.70;41.60;;;;;;5071268;28;19931;-49
2022/04/07 13:44:26;;;;;;;;;;;20.70;41.60;;;;;;5069317;28;19936;-48
2022/04/07 13:46:56;;;;;;;;;;;20.70;41.60;;;;;;5077263;28;19935;-49
2022/04/07 13:49:25;;;;;;;;;;;20.80;41.70;;;;;;5059369;28;19928;-49
2022/04/07 13:51:52;;;;;;;;;;;20.80;41.60;;;;;;5055196;28;19940;-46
2022/04/07 13:54:20;;;;;;;;;;;20.70;41.60;;;;;;5067582;28;19929;-48
2022/04/07 13:56:49;;;;;;;;;;;20.80;41.70;;;;;;5059134;28;19924;-52
2022/04/07 13:59:17;;;;;;;;;;;20.80;41.70;;;;;;5071240;28;19932;-54
2022/04/07 14:01:44;;;;;;;;;;;20.80;41.70;;;;;;5071395;28;19928;-49
2022/04/07 14:04:10;;;;;;;;;;;20.70;41.60;;;;;;5045163;28;19932;-52
2022/04/07 14:06:38;;;;;;;;;;;20.80;41.70;;;;;;5063205;28;19933;-54
2022/04/07 14:09:06;;;;;;;;;;;20.80;41.70;;;;;;5064791;28;19924;-50
2022/04/07 14:11:34;;;;;;;;;;;20.80;41.70;;;;;;5052187;28;19925;-50
2022/04/07 14:14:01;;;;;;;;;;;20.80;41.70;;;;;;5057954;28;19928;-51
2022/04/07 14:16:30;;;;;;;;;;;20.80;41.70;;;;;;5060642;28;19942;-49
2022/04/07 14:18:56;;;;;;;;;;;20.80;41.70;;;;;;5060441;28;19924;-52
2022/04/07 14:21:24;;;;;;;;;;;20.80;41.70;;;;;;5055843;28;20026;-47
2022/04/07 14:23:54;;;;;;;;;;;20.80;41.70;;;;;;5050055;28;19932;-52